sensor_id;sensor_type;location;lat;lon;timestamp;P1;durP1;ratioP1;P2;durP2;ratioP2
47669;SDS011;33408;52.062;11.722;2023-08-17T04:22:03;13.63;;;8.43;;
47669;SDS011;33408;52.062;11.722;2023-08-17T04:24:30;12.75;;;8.15;;
47669;SDS011;33408;52.062;11.722;2023-08-17T04:26:57;13.63;;;8.73;;
47669;SDS011;33408;52.062;11.722;2023-08-17T04:29:23;9.98;;;8.13;;
47669;SDS011;33408;52.062;11.722;2023-08-17T04:31:50;11.65;;;8.25;;
47669;SDS011;33408;52.062;11.722;2023-08-17T04:34:17;11.43;;;7.90;;
47669;SDS011;33408;52.062;11.722;2023-08-17T04:36:45;12.85;;;8.13;;
47669;SDS011;33408;52.062;11.722;2023-08-17T04:39:12;10.85;;;7.57;;
47669;SDS011;33408;52.062;11.722;2023-08-17T04:41:38;12.65;;;7.93;;
47669;SDS011;33408;52.062;11.722;2023-08-17T04:44:05;12.65;;;8.00;;
47669;SDS011;33408;52.062;11.722;2023-08-17T04:46:32;10.77;;;7.50;;
47669;SDS011;33408;52.062;11.722;2023-08-17T04:48:58;9.32;;;7.13;;
47669;SDS011;33408;52.062;11.722;2023-08-17T04:51:25;9.68;;;6.90;;
47669;SDS011;33408;52.062;11.722;2023-08-17T04:53:53;11.98;;;6.60;;
47669;SDS011;33408;52.062;11.722;2023-08-17T04:56:20;10.73;;;6.82;;
47669;SDS011;33408;52.062;11.722;2023-08-17T04:58:46;10.88;;;6.40;;
47669;SDS011;33408;52.062;11.722;2023-08-17T05:01:13;8.02;;;6.03;;
47669;SDS011;33408;52.062;11.722;2023-08-17T05:03:40;9.38;;;6.63;;
47669;SDS011;33408;52.062;11.722;2023-08-17T05:06:06;11.77;;;7.32;;
47669;SDS011;33408;52.062;11.722;2023-08-17T05:08:33;11.23;;;6.82;;
47669;SDS011;33408;52.062;11.722;2023-08-17T05:11:01;11.25;;;7.25;;
47669;SDS011;33408;52.062;11.722;2023-08-17T05:13:28;9.93;;;7.07;;
47669;SDS011;33408;52.062;11.722;2023-08-17T05:15:54;16.52;;;7.00;;
47669;SDS011;33408;52.062;11.722;2023-08-17T05:18:21;10.10;;;6.35;;
47669;SDS011;33408;52.062;11.722;2023-08-17T05:20:48;10.38;;;6.47;;
47669;SDS011;33408;52.062;11.722;2023-08-17T05:23:14;9.77;;;6.88;;
47669;SDS011;33408;52.062;11.722;2023-08-17T05:25:41;11.73;;;6.72;;
47669;SDS011;33408;52.062;11.722;2023-08-17T05:28:09;12.73;;;6.40;;
47669;SDS011;33408;52.062;11.722;2023-08-17T05:30:35;9.02;;;5.90;;
47669;SDS011;33408;52.062;11.722;2023-08-17T05:33:02;10.27;;;7.05;;
47669;SDS011;33408;52.062;11.722;2023-08-17T05:35:29;9.82;;;7.20;;
47669;SDS011;33408;52.062;11.722;2023-08-17T05:37:55;9.88;;;6.90;;
47669;SDS011;33408;52.062;11.722;2023-08-17T05:40:22;9.35;;;6.22;;
47669;SDS011;33408;52.062;11.722;2023-08-17T05:42:49;9.77;;;6.75;;
47669;SDS011;33408;52.062;11.722;2023-08-17T05:45:17;9.23;;;6.60;;
47669;SDS011;33408;52.062;11.722;2023-08-17T05:47:43;9.20;;;6.65;;
47669;SDS011;33408;52.062;11.722;2023-08-17T05:50:10;9.52;;;6.75;;
47669;SDS011;33408;52.062;11.722;2023-08-17T05:52:38;9.77;;;7.03;;
47669;SDS011;33408;52.062;11.722;2023-08-17T05:55:06;8.88;;;6.28;;
47669;SDS011;33408;52.062;11.722;2023-08-17T05:57:33;13.50;;;6.15;;
47669;SDS011;33408;52.062;11.722;2023-08-17T06:00:00;11.50;;;6.75;;
47669;SDS011;33408;52.062;11.722;2023-08-17T06:02:29;9.30;;;5.70;;
47669;SDS011;33408;52.062;11.722;2023-08-17T06:04:55;8.07;;;5.50;;
47669;SDS011;33408;52.062;11.722;2023-08-17T06:07:22;8.25;;;6.03;;
47669;SDS011;33408;52.062;11.722;2023-08-17T06:09:48;9.40;;;6.43;;
47669;SDS011;33408;52.062;11.722;2023-08-17T06:12:15;12.35;;;6.35;;
47669;SDS011;33408;52.062;11.722;2023-08-17T06:14:42;8.00;;;5.57;;
47669;SDS011;33408;52.062;11.722;2023-08-17T06:17:09;8.27;;;5.45;;
47669;SDS011;33408;52.062;11.722;2023-08-17T06:19:37;8.25;;;5.53;;
47669;SDS011;33408;52.062;11.722;2023-08-17T06:22:04;9.52;;;5.80;;
47669;SDS011;33408;52.062;11.722;2023-08-17T06:24:31;10.23;;;6.20;;
47669;SDS011;33408;52.062;11.722;2023-08-17T06:26:58;8.63;;;5.85;;
47669;SDS011;33408;52.062;11.722;2023-08-17T06:29:25;9.98;;;6.45;;
47669;SDS011;33408;52.062;11.722;2023-08-17T06:31:51;8.95;;;5.82;;
47669;SDS011;33408;52.062;11.722;2023-08-17T06:34:20;9.05;;;5.07;;
47669;SDS011;33408;52.062;11.722;2023-08-17T06:36:57;8.25;;;5.30;;
47669;SDS011;33408;52.062;11.722;2023-08-17T06:39:25;10.18;;;5.40;;
47669;SDS011;33408;52.062;11.722;2023-08-17T06:41:52;8.27;;;5.30;;
47669;SDS011;33408;52.062;11.722;2023-08-17T06:44:19;10.18;;;6.05;;
47669;SDS011;33408;52.062;11.722;2023-08-17T06:46:46;8.50;;;5.75;;
47669;SDS011;33408;52.062;11.722;2023-08-17T06:49:13;8.00;;;5.15;;
47669;SDS011;33408;52.062;11.722;2023-08-17T06:51:39;7.88;;;5.68;;
47669;SDS011;33408;52.062;11.722;2023-08-17T06:54:08;8.00;;;5.88;;
47669;SDS011;33408;52.062;11.722;2023-08-17T06:56:35;8.18;;;5.35;;
47669;SDS011;33408;52.062;11.722;2023-08-17T06:59:01;9.13;;;5.05;;
47669;SDS011;33408;52.062;11.722;2023-08-17T07:01:28;6.50;;;4.63;;
47669;SDS011;33408;52.062;11.722;2023-08-17T07:03:55;8.35;;;5.25;;
47669;SDS011;33408;52.062;11.722;2023-08-17T07:06:22;8.32;;;5.88;;
47669;SDS011;33408;52.062;11.722;2023-08-17T07:08:48;9.48;;;5.88;;
47669;SDS011;33408;52.062;11.722;2023-08-17T07:11:16;7.85;;;5.43;;
47669;SDS011;33408;52.062;11.722;2023-08-17T07:13:43;8.75;;;5.68;;
47669;SDS011;33408;52.062;11.722;2023-08-17T07:16:09;10.10;;;6.20;;
47669;SDS011;33408;52.062;11.722;2023-08-17T07:18:36;7.75;;;6.00;;
47669;SDS011;33408;52.062;11.722;2023-08-17T07:21:02;7.95;;;5.72;;
47669;SDS011;33408;52.062;11.722;2023-08-17T07:23:29;7.45;;;5.72;;
47669;SDS011;33408;52.062;11.722;2023-08-17T07:25:56;8.85;;;5.20;;
47669;SDS011;33408;52.062;11.722;2023-08-17T07:28:24;10.07;;;5.93;;
47669;SDS011;33408;52.062;11.722;2023-08-17T07:30:50;8.93;;;5.88;;
47669;SDS011;33408;52.062;11.722;2023-08-17T07:33:17;9.00;;;5.50;;
47669;SDS011;33408;52.062;11.722;2023-08-17T07:35:43;9.25;;;5.15;;
47669;SDS011;33408;52.062;11.722;2023-08-17T07:38:10;8.25;;;5.47;;
47669;SDS011;33408;52.062;11.722;2023-08-17T07:40:36;7.10;;;5.40;;
47669;SDS011;33408;52.062;11.722;2023-08-17T07:43:03;10.05;;;5.60;;
47669;SDS011;33408;52.062;11.722;2023-08-17T07:45:31;10.02;;;5.68;;
47669;SDS011;33408;52.062;11.722;2023-08-17T07:47:58;8.15;;;4.97;;
47669;SDS011;33408;52.062;11.722;2023-08-17T07:50:25;9.57;;;4.80;;
47669;SDS011;33408;52.062;11.722;2023-08-17T07:52:51;7.70;;;5.07;;
47669;SDS011;33408;52.062;11.722;2023-08-17T07:55:18;7.10;;;4.97;;
47669;SDS011;33408;52.062;11.722;2023-08-17T07:57:44;7.35;;;4.78;;
47669;SDS011;33408;52.062;11.722;2023-08-17T08:00:11;10.02;;;4.82;;
47669;SDS011;33408;52.062;11.722;2023-08-17T08:02:40;9.82;;;5.13;;
47669;SDS011;33408;52.062;11.722;2023-08-17T08:05:07;8.30;;;4.93;;
47669;SDS011;33408;52.062;11.722;2023-08-17T08:07:33;8.40;;;4.68;;
47669;SDS011;33408;52.062;11.722;2023-08-17T08:10:00;9.32;;;4.70;;
47669;SDS011;33408;52.062;11.722;2023-08-17T08:12:27;8.15;;;4.25;;
47669;SDS011;33408;52.062;11.722;2023-08-17T08:14:54;6.25;;;3.78;;
47669;SDS011;33408;52.062;11.722;2023-08-17T08:17:20;6.78;;;4.10;;
47669;SDS011;33408;52.062;11.722;2023-08-17T08:19:48;7.68;;;4.43;;
47669;SDS011;33408;52.062;11.722;2023-08-17T08:22:16;6.85;;;3.78;;
47669;SDS011;33408;52.062;11.722;2023-08-17T08:24:42;7.40;;;4.38;;
47669;SDS011;33408;52.062;11.722;2023-08-17T08:27:09;8.70;;;4.00;;
47669;SDS011;33408;52.062;11.722;2023-08-17T08:29:36;7.55;;;3.83;;
47669;SDS011;33408;52.062;11.722;2023-08-17T08:32:02;6.70;;;3.72;;
47669;SDS011;33408;52.062;11.722;2023-08-17T08:34:29;8.70;;;4.40;;
47669;SDS011;33408;52.062;11.722;2023-08-17T08:36:57;5.53;;;3.50;;
47669;SDS011;33408;52.062;11.722;2023-08-17T08:39:25;6.05;;;3.58;;
47669;SDS011;33408;52.062;11.722;2023-08-17T08:41:51;7.35;;;4.00;;
47669;SDS011;33408;52.062;11.722;2023-08-17T08:44:18;7.93;;;3.67;;
47669;SDS011;33408;52.062;11.722;2023-08-17T08:46:45;7.10;;;3.60;;
47669;SDS011;33408;52.062;11.722;2023-08-17T08:49:12;9.20;;;3.78;;
47669;SDS011;33408;52.062;11.722;2023-08-17T08:51:43;8.50;;;3.72;;
47669;SDS011;33408;52.062;11.722;2023-08-17T08:54:14;5.03;;;2.83;;
47669;SDS011;33408;52.062;11.722;2023-08-17T08:56:46;6.13;;;3.60;;
47669;SDS011;33408;52.062;11.722;2023-08-17T08:59:14;5.47;;;2.95;;
47669;SDS011;33408;52.062;11.722;2023-08-17T09:01:42;5.68;;;2.58;;
47669;SDS011;33408;52.062;11.722;2023-08-17T09:04:09;5.53;;;3.00;;
47669;SDS011;33408;52.062;11.722;2023-08-17T09:06:36;5.00;;;3.00;;
47669;SDS011;33408;52.062;11.722;2023-08-17T09:09:05;4.75;;;2.58;;
47669;SDS011;33408;52.062;11.722;2023-08-17T09:11:35;5.35;;;2.83;;
47669;SDS011;33408;52.062;11.722;2023-08-17T09:14:02;6.05;;;2.70;;
47669;SDS011;33408;52.062;11.722;2023-08-17T09:16:32;3.92;;;2.10;;
47669;SDS011;33408;52.062;11.722;2023-08-17T09:18:58;5.95;;;2.50;;
47669;SDS011;33408;52.062;11.722;2023-08-17T09:21:25;4.72;;;2.50;;
47669;SDS011;33408;52.062;11.722;2023-08-17T09:23:52;5.28;;;2.72;;
47669;SDS011;33408;52.062;11.722;2023-08-17T09:26:20;5.40;;;2.83;;
47669;SDS011;33408;52.062;11.722;2023-08-17T09:28:49;4.90;;;2.60;;
47669;SDS011;33408;52.062;11.722;2023-08-17T09:31:19;9.18;;;2.67;;
47669;SDS011;33408;52.062;11.722;2023-08-17T09:33:48;4.53;;;2.55;;
47669;SDS011;33408;52.062;11.722;2023-08-17T09:36:19;5.40;;;2.58;;
47669;SDS011;33408;52.062;11.722;2023-08-17T09:38:47;3.47;;;2.03;;
47669;SDS011;33408;52.062;11.722;2023-08-17T09:41:14;3.47;;;1.98;;
47669;SDS011;33408;52.062;11.722;2023-08-17T09:43:41;4.10;;;2.30;;
47669;SDS011;33408;52.062;11.722;2023-08-17T09:46:09;3.90;;;1.80;;
47669;SDS011;33408;52.062;11.722;2023-08-17T09:48:36;3.97;;;1.80;;
47669;SDS011;33408;52.062;11.722;2023-08-17T09:51:03;3.33;;;1.90;;
47669;SDS011;33408;52.062;11.722;2023-08-17T09:53:34;5.63;;;2.10;;
47669;SDS011;33408;52.062;11.722;2023-08-17T09:56:03;3.90;;;1.88;;
47669;SDS011;33408;52.062;11.722;2023-08-17T09:58:32;3.05;;;1.70;;
47669;SDS011;33408;52.062;11.722;2023-08-17T10:00:59;5.22;;;2.03;;
47669;SDS011;33408;52.062;11.722;2023-08-17T10:03:31;2.97;;;1.90;;
47669;SDS011;33408;52.062;11.722;2023-08-17T10:06:01;4.47;;;2.03;;
47669;SDS011;33408;52.062;11.722;2023-08-17T10:08:32;2.67;;;1.50;;
47669;SDS011;33408;52.062;11.722;2023-08-17T10:11:02;4.55;;;1.80;;
47669;SDS011;33408;52.062;11.722;2023-08-17T10:13:35;3.10;;;1.80;;
47669;SDS011;33408;52.062;11.722;2023-08-17T10:16:06;3.92;;;2.00;;
47669;SDS011;33408;52.062;11.722;2023-08-17T10:21:13;3.13;;;1.90;;
47669;SDS011;33408;52.062;11.722;2023-08-17T10:23:44;3.60;;;1.73;;
47669;SDS011;33408;52.062;11.722;2023-08-17T10:26:11;3.55;;;1.90;;
47669;SDS011;33408;52.062;11.722;2023-08-17T10:28:38;3.53;;;1.90;;
47669;SDS011;33408;52.062;11.722;2023-08-17T10:31:05;4.72;;;2.22;;
47669;SDS011;33408;52.062;11.722;2023-08-17T10:33:33;5.72;;;2.33;;
47669;SDS011;33408;52.062;11.722;2023-08-17T10:36:01;6.88;;;2.20;;
47669;SDS011;33408;52.062;11.722;2023-08-17T10:38:28;3.47;;;2.08;;
47669;SDS011;33408;52.062;11.722;2023-08-17T10:41:07;4.75;;;2.47;;
47669;SDS011;33408;52.062;11.722;2023-08-17T10:43:34;4.47;;;2.50;;
47669;SDS011;33408;52.062;11.722;2023-08-17T10:46:14;4.03;;;2.47;;
47669;SDS011;33408;52.062;11.722;2023-08-17T10:48:43;3.92;;;1.98;;
47669;SDS011;33408;52.062;11.722;2023-08-17T10:51:11;6.93;;;2.55;;
47669;SDS011;33408;52.062;11.722;2023-08-17T10:53:38;4.22;;;2.38;;
47669;SDS011;33408;52.062;11.722;2023-08-17T10:56:09;4.18;;;2.47;;
47669;SDS011;33408;52.062;11.722;2023-08-17T10:58:37;5.05;;;2.70;;
47669;SDS011;33408;52.062;11.722;2023-08-17T11:01:04;4.65;;;2.50;;
47669;SDS011;33408;52.062;11.722;2023-08-17T11:03:31;5.95;;;2.72;;
47669;SDS011;33408;52.062;11.722;2023-08-17T11:05:58;7.13;;;2.80;;
47669;SDS011;33408;52.062;11.722;2023-08-17T11:08:52;5.38;;;2.50;;
47669;SDS011;33408;52.062;11.722;2023-08-17T11:11:21;5.53;;;2.75;;
47669;SDS011;33408;52.062;11.722;2023-08-17T11:13:48;6.18;;;2.70;;
47669;SDS011;33408;52.062;11.722;2023-08-17T11:16:16;5.57;;;2.97;;
47669;SDS011;33408;52.062;11.722;2023-08-17T11:18:44;5.82;;;2.70;;
47669;SDS011;33408;52.062;11.722;2023-08-17T11:21:11;4.88;;;2.80;;
47669;SDS011;33408;52.062;11.722;2023-08-17T11:23:41;4.97;;;2.90;;
47669;SDS011;33408;52.062;11.722;2023-08-17T11:26:08;4.95;;;2.78;;
47669;SDS011;33408;52.062;11.722;2023-08-17T11:28:34;5.78;;;2.80;;
47669;SDS011;33408;52.062;11.722;2023-08-17T11:31:04;3.85;;;2.50;;
47669;SDS011;33408;52.062;11.722;2023-08-17T11:33:32;6.07;;;3.15;;
47669;SDS011;33408;52.062;11.722;2023-08-17T11:36:00;4.90;;;2.92;;
47669;SDS011;33408;52.062;11.722;2023-08-17T11:38:29;6.60;;;3.13;;
47669;SDS011;33408;52.062;11.722;2023-08-17T11:40:58;4.05;;;2.65;;
47669;SDS011;33408;52.062;11.722;2023-08-17T11:43:26;8.20;;;3.42;;
47669;SDS011;33408;52.062;11.722;2023-08-17T11:45:54;6.38;;;3.55;;
47669;SDS011;33408;52.062;11.722;2023-08-17T11:48:21;5.80;;;3.78;;
47669;SDS011;33408;52.062;11.722;2023-08-17T11:50:49;5.72;;;3.45;;
47669;SDS011;33408;52.062;11.722;2023-08-17T11:53:16;6.60;;;3.78;;
47669;SDS011;33408;52.062;11.722;2023-08-17T11:55:43;5.97;;;3.47;;
47669;SDS011;33408;52.062;11.722;2023-08-17T11:58:11;4.82;;;3.22;;
47669;SDS011;33408;52.062;11.722;2023-08-17T12:00:39;6.93;;;3.80;;
47669;SDS011;33408;52.062;11.722;2023-08-17T12:03:12;6.85;;;3.60;;
47669;SDS011;33408;52.062;11.722;2023-08-17T12:05:41;5.65;;;3.88;;
47669;SDS011;33408;52.062;11.722;2023-08-17T12:08:07;6.55;;;3.80;;
47669;SDS011;33408;52.062;11.722;2023-08-17T12:10:34;8.13;;;3.90;;
47669;SDS011;33408;52.062;11.722;2023-08-17T12:13:03;6.63;;;4.38;;
47669;SDS011;33408;52.062;11.722;2023-08-17T12:15:32;7.55;;;3.92;;
47669;SDS011;33408;52.062;11.722;2023-08-17T12:17:59;6.32;;;4.10;;
47669;SDS011;33408;52.062;11.722;2023-08-17T12:20:26;5.90;;;4.15;;
47669;SDS011;33408;52.062;11.722;2023-08-17T12:22:56;6.13;;;4.15;;
47669;SDS011;33408;52.062;11.722;2023-08-17T12:25:23;5.70;;;3.60;;
47669;SDS011;33408;52.062;11.722;2023-08-17T12:27:50;5.95;;;3.90;;
47669;SDS011;33408;52.062;11.722;2023-08-17T12:30:24;6.35;;;3.95;;
47669;SDS011;33408;52.062;11.722;2023-08-17T12:32:53;6.30;;;4.30;;
47669;SDS011;33408;52.062;11.722;2023-08-17T12:35:20;6.60;;;3.92;;
47669;SDS011;33408;52.062;11.722;2023-08-17T12:37:49;5.68;;;3.67;;
47669;SDS011;33408;52.062;11.722;2023-08-17T12:40:16;8.02;;;4.00;;
47669;SDS011;33408;52.062;11.722;2023-08-17T12:42:43;6.65;;;4.22;;
47669;SDS011;33408;52.062;11.722;2023-08-17T12:45:09;7.82;;;4.55;;
47669;SDS011;33408;52.062;11.722;2023-08-17T12:47:36;5.72;;;3.80;;
47669;SDS011;33408;52.062;11.722;2023-08-17T12:50:05;9.27;;;4.40;;
47669;SDS011;33408;52.062;11.722;2023-08-17T12:52:32;8.43;;;4.55;;
47669;SDS011;33408;52.062;11.722;2023-08-17T12:54:58;8.90;;;4.32;;
47669;SDS011;33408;52.062;11.722;2023-08-17T12:57:25;6.97;;;4.35;;
47669;SDS011;33408;52.062;11.722;2023-08-17T12:59:51;6.78;;;4.18;;
47669;SDS011;33408;52.062;11.722;2023-08-17T13:02:19;6.88;;;4.78;;
47669;SDS011;33408;52.062;11.722;2023-08-17T13:04:46;7.40;;;4.80;;
47669;SDS011;33408;52.062;11.722;2023-08-17T13:07:13;6.60;;;4.82;;
47669;SDS011;33408;52.062;11.722;2023-08-17T13:09:40;6.47;;;5.05;;
47669;SDS011;33408;52.062;11.722;2023-08-17T13:12:07;6.25;;;4.95;;
47669;SDS011;33408;52.062;11.722;2023-08-17T13:14:34;7.25;;;4.60;;
47669;SDS011;33408;52.062;11.722;2023-08-17T13:17:00;7.50;;;5.70;;
47669;SDS011;33408;52.062;11.722;2023-08-17T13:19:27;6.93;;;5.25;;
47669;SDS011;33408;52.062;11.722;2023-08-17T13:21:53;8.77;;;5.90;;
47669;SDS011;33408;52.062;11.722;2023-08-17T13:24:21;9.07;;;6.32;;
47669;SDS011;33408;52.062;11.722;2023-08-17T13:26:48;14.48;;;6.30;;
47669;SDS011;33408;52.062;11.722;2023-08-17T13:29:17;9.15;;;7.20;;
47669;SDS011;33408;52.062;11.722;2023-08-17T13:31:46;8.15;;;6.20;;
47669;SDS011;33408;52.062;11.722;2023-08-17T13:34:13;8.50;;;6.72;;
47669;SDS011;33408;52.062;11.722;2023-08-17T13:36:39;8.98;;;6.72;;
47669;SDS011;33408;52.062;11.722;2023-08-17T13:39:06;9.15;;;7.00;;
47669;SDS011;33408;52.062;11.722;2023-08-17T13:41:34;8.45;;;6.35;;
47669;SDS011;33408;52.062;11.722;2023-08-17T13:44:01;8.23;;;6.03;;
47669;SDS011;33408;52.062;11.722;2023-08-17T13:46:27;9.95;;;7.22;;
47669;SDS011;33408;52.062;11.722;2023-08-17T13:48:54;8.30;;;7.05;;
47669;SDS011;33408;52.062;11.722;2023-08-17T13:51:20;10.63;;;7.07;;
47669;SDS011;33408;52.062;11.722;2023-08-17T13:53:47;11.23;;;7.30;;
47669;SDS011;33408;52.062;11.722;2023-08-17T13:56:14;9.77;;;7.20;;
47669;SDS011;33408;52.062;11.722;2023-08-17T13:58:41;8.13;;;6.43;;
47669;SDS011;33408;52.062;11.722;2023-08-17T14:01:08;9.38;;;8.27;;
47669;SDS011;33408;52.062;11.722;2023-08-17T14:03:36;8.38;;;6.65;;
47669;SDS011;33408;52.062;11.722;2023-08-17T14:06:03;8.98;;;7.47;;
47669;SDS011;33408;52.062;11.722;2023-08-17T14:08:29;10.27;;;7.68;;
47669;SDS011;33408;52.062;11.722;2023-08-17T14:10:56;10.55;;;7.75;;
47669;SDS011;33408;52.062;11.722;2023-08-17T14:13:24;10.10;;;7.47;;
47669;SDS011;33408;52.062;11.722;2023-08-17T14:15:52;11.52;;;8.02;;
47669;SDS011;33408;52.062;11.722;2023-08-17T14:18:21;9.23;;;7.72;;
47669;SDS011;33408;52.062;11.722;2023-08-17T14:20:47;10.50;;;8.48;;
47669;SDS011;33408;52.062;11.722;2023-08-17T14:23:14;9.05;;;7.93;;
47669;SDS011;33408;52.062;11.722;2023-08-17T14:25:40;10.15;;;8.38;;
47669;SDS011;33408;52.062;11.722;2023-08-17T14:28:07;10.93;;;8.43;;
47669;SDS011;33408;52.062;11.722;2023-08-17T14:30:34;10.15;;;8.15;;
47669;SDS011;33408;52.062;11.722;2023-08-17T14:33:02;12.45;;;8.18;;
47669;SDS011;33408;52.062;11.722;2023-08-17T14:35:29;10.90;;;8.15;;
47669;SDS011;33408;52.062;11.722;2023-08-17T14:37:55;10.85;;;8.68;;
47669;SDS011;33408;52.062;11.722;2023-08-17T14:40:23;9.73;;;8.63;;
47669;SDS011;33408;52.062;11.722;2023-08-17T14:42:49;13.95;;;8.55;;
47669;SDS011;33408;52.062;11.722;2023-08-17T14:45:16;11.15;;;8.25;;
47669;SDS011;33408;52.062;11.722;2023-08-17T14:47:42;12.57;;;9.95;;
47669;SDS011;33408;52.062;11.722;2023-08-17T14:50:10;11.50;;;9.10;;
47669;SDS011;33408;52.062;11.722;2023-08-17T14:52:39;14.25;;;10.05;;
47669;SDS011;33408;52.062;11.722;2023-08-17T14:55:05;12.52;;;9.00;;
47669;SDS011;33408;52.062;11.722;2023-08-17T14:57:34;10.02;;;8.18;;
47669;SDS011;33408;52.062;11.722;2023-08-17T15:00:00;9.48;;;8.45;;
47669;SDS011;33408;52.062;11.722;2023-08-17T15:02:27;9.73;;;8.50;;
47669;SDS011;33408;52.062;11.722;2023-08-17T15:04:54;12.70;;;8.75;;
47669;SDS011;33408;52.062;11.722;2023-08-17T15:07:22;14.98;;;11.02;;
47669;SDS011;33408;52.062;11.722;2023-08-17T15:09:48;10.57;;;8.10;;
47669;SDS011;33408;52.062;11.722;2023-08-17T15:12:15;12.45;;;8.98;;
47669;SDS011;33408;52.062;11.722;2023-08-17T15:14:41;11.20;;;8.38;;
47669;SDS011;33408;52.062;11.722;2023-08-17T15:17:08;11.38;;;7.70;;
47669;SDS011;33408;52.062;11.722;2023-08-17T15:19:37;11.05;;;6.97;;
47669;SDS011;33408;52.062;11.722;2023-08-17T15:22:04;11.52;;;8.07;;
47669;SDS011;33408;52.062;11.722;2023-08-17T15:24:32;9.95;;;7.20;;
47669;SDS011;33408;52.062;11.722;2023-08-17T15:26:58;10.15;;;6.88;;
47669;SDS011;33408;52.062;11.722;2023-08-17T15:29:25;11.77;;;8.13;;
47669;SDS011;33408;52.062;11.722;2023-08-17T15:31:51;9.13;;;7.25;;
47669;SDS011;33408;52.062;11.722;2023-08-17T15:34:18;12.13;;;7.20;;
47669;SDS011;33408;52.062;11.722;2023-08-17T15:36:44;11.93;;;6.65;;
47669;SDS011;33408;52.062;11.722;2023-08-17T15:41:47;9.55;;;6.88;;
47669;SDS011;33408;52.062;11.722;2023-08-17T15:44:14;9.88;;;6.85;;
47669;SDS011;33408;52.062;11.722;2023-08-17T15:46:41;9.90;;;7.20;;
47669;SDS011;33408;52.062;11.722;2023-08-17T15:49:07;8.68;;;6.45;;
47669;SDS011;33408;52.062;11.722;2023-08-17T15:51:34;9.93;;;6.38;;
47669;SDS011;33408;52.062;11.722;2023-08-17T15:54:01;11.02;;;6.95;;
47669;SDS011;33408;52.062;11.722;2023-08-17T15:56:27;10.45;;;6.95;;
47669;SDS011;33408;52.062;11.722;2023-08-17T15:58:55;9.50;;;6.25;;
47669;SDS011;33408;52.062;11.722;2023-08-17T16:01:22;8.90;;;6.15;;
47669;SDS011;33408;52.062;11.722;2023-08-17T16:03:48;9.10;;;5.68;;
47669;SDS011;33408;52.062;11.722;2023-08-17T16:06:15;13.20;;;6.05;;
47669;SDS011;33408;52.062;11.722;2023-08-17T16:08:41;12.23;;;6.03;;
47669;SDS011;33408;52.062;11.722;2023-08-17T16:11:08;9.60;;;5.82;;
47669;SDS011;33408;52.062;11.722;2023-08-17T16:13:35;9.40;;;5.15;;
47669;SDS011;33408;52.062;11.722;2023-08-17T16:16:03;8.05;;;5.70;;
47669;SDS011;33408;52.062;11.722;2023-08-17T16:18:30;14.75;;;7.63;;
47669;SDS011;33408;52.062;11.722;2023-08-17T16:20:57;8.98;;;5.80;;
47669;SDS011;33408;52.062;11.722;2023-08-17T16:23:24;8.45;;;5.47;;
47669;SDS011;33408;52.062;11.722;2023-08-17T16:25:50;11.23;;;6.18;;
47669;SDS011;33408;52.062;11.722;2023-08-17T16:28:17;9.60;;;6.35;;
47669;SDS011;33408;52.062;11.722;2023-08-17T16:30:43;10.75;;;6.55;;
47669;SDS011;33408;52.062;11.722;2023-08-17T16:33:11;8.38;;;6.00;;
47669;SDS011;33408;52.062;11.722;2023-08-17T16:35:38;9.32;;;6.28;;
47669;SDS011;33408;52.062;11.722;2023-08-17T16:38:05;9.80;;;6.03;;
47669;SDS011;33408;52.062;11.722;2023-08-17T16:40:31;7.75;;;6.00;;
47669;SDS011;33408;52.062;11.722;2023-08-17T16:42:58;9.35;;;5.70;;
47669;SDS011;33408;52.062;11.722;2023-08-17T16:45:25;9.75;;;6.22;;
47669;SDS011;33408;52.062;11.722;2023-08-17T16:47:52;7.55;;;5.95;;
47669;SDS011;33408;52.062;11.722;2023-08-17T16:50:20;10.63;;;5.72;;
47669;SDS011;33408;52.062;11.722;2023-08-17T16:52:46;8.65;;;6.20;;
47669;SDS011;33408;52.062;11.722;2023-08-17T16:55:13;10.55;;;6.25;;
47669;SDS011;33408;52.062;11.722;2023-08-17T16:57:41;9.32;;;5.55;;
47669;SDS011;33408;52.062;11.722;2023-08-17T17:00:08;8.73;;;5.70;;
47669;SDS011;33408;52.062;11.722;2023-08-17T17:02:36;10.43;;;5.70;;
47669;SDS011;33408;52.062;11.722;2023-08-17T17:05:03;9.32;;;5.97;;
47669;SDS011;33408;52.062;11.722;2023-08-17T17:07:34;8.35;;;5.43;;
47669;SDS011;33408;52.062;11.722;2023-08-17T17:10:01;8.38;;;6.03;;
47669;SDS011;33408;52.062;11.722;2023-08-17T17:12:28;8.55;;;5.53;;
47669;SDS011;33408;52.062;11.722;2023-08-17T17:14:54;8.40;;;5.68;;
47669;SDS011;33408;52.062;11.722;2023-08-17T17:17:21;8.82;;;5.47;;
47669;SDS011;33408;52.062;11.722;2023-08-17T17:19:48;8.63;;;5.88;;
47669;SDS011;33408;52.062;11.722;2023-08-17T17:22:14;9.70;;;5.63;;
47669;SDS011;33408;52.062;11.722;2023-08-17T17:24:42;8.30;;;5.85;;
47669;SDS011;33408;52.062;11.722;2023-08-17T17:27:09;10.50;;;6.15;;
47669;SDS011;33408;52.062;11.722;2023-08-17T17:29:35;10.40;;;5.70;;
47669;SDS011;33408;52.062;11.722;2023-08-17T17:32:02;8.98;;;5.70;;
47669;SDS011;33408;52.062;11.722;2023-08-17T17:34:29;8.55;;;5.47;;
47669;SDS011;33408;52.062;11.722;2023-08-17T17:36:56;9.07;;;6.05;;
47669;SDS011;33408;52.062;11.722;2023-08-17T17:39:24;9.27;;;5.70;;
47669;SDS011;33408;52.062;11.722;2023-08-17T17:41:52;10.27;;;6.20;;
47669;SDS011;33408;52.062;11.722;2023-08-17T17:44:20;10.25;;;6.55;;
47669;SDS011;33408;52.062;11.722;2023-08-17T17:46:47;8.80;;;6.07;;
47669;SDS011;33408;52.062;11.722;2023-08-17T17:49:14;10.75;;;6.57;;
47669;SDS011;33408;52.062;11.722;2023-08-17T17:51:40;8.85;;;5.90;;
47669;SDS011;33408;52.062;11.722;2023-08-17T17:54:07;10.07;;;6.03;;
47669;SDS011;33408;52.062;11.722;2023-08-17T17:56:37;10.70;;;5.78;;
47669;SDS011;33408;52.062;11.722;2023-08-17T17:59:06;8.65;;;6.55;;
47669;SDS011;33408;52.062;11.722;2023-08-17T18:01:33;9.85;;;6.43;;
47669;SDS011;33408;52.062;11.722;2023-08-17T18:04:00;10.93;;;6.40;;
47669;SDS011;33408;52.062;11.722;2023-08-17T18:06:28;8.43;;;6.22;;
47669;SDS011;33408;52.062;11.722;2023-08-17T18:08:54;8.13;;;6.10;;
47669;SDS011;33408;52.062;11.722;2023-08-17T18:11:22;9.85;;;6.28;;
47669;SDS011;33408;52.062;11.722;2023-08-17T18:13:49;9.07;;;7.05;;
47669;SDS011;33408;52.062;11.722;2023-08-17T18:16:17;8.57;;;6.90;;
47669;SDS011;33408;52.062;11.722;2023-08-17T18:18:44;10.50;;;6.30;;
47669;SDS011;33408;52.062;11.722;2023-08-17T18:21:11;8.82;;;6.70;;
47669;SDS011;33408;52.062;11.722;2023-08-17T18:23:37;10.27;;;6.50;;
47669;SDS011;33408;52.062;11.722;2023-08-17T18:26:04;8.95;;;6.85;;
47669;SDS011;33408;52.062;11.722;2023-08-17T18:28:31;9.10;;;5.93;;
47669;SDS011;33408;52.062;11.722;2023-08-17T18:30:57;9.88;;;6.53;;
47669;SDS011;33408;52.062;11.722;2023-08-17T18:33:25;9.32;;;6.57;;
47669;SDS011;33408;52.062;11.722;2023-08-17T18:35:52;9.15;;;6.82;;
47669;SDS011;33408;52.062;11.722;2023-08-17T18:38:20;9.27;;;6.43;;
47669;SDS011;33408;52.062;11.722;2023-08-17T18:40:47;8.55;;;6.35;;
47669;SDS011;33408;52.062;11.722;2023-08-17T18:43:14;8.82;;;5.72;;
47669;SDS011;33408;52.062;11.722;2023-08-17T18:45:40;9.23;;;6.35;;
47669;SDS011;33408;52.062;11.722;2023-08-17T18:48:07;8.23;;;6.10;;
47669;SDS011;33408;52.062;11.722;2023-08-17T18:50:35;11.68;;;6.22;;
47669;SDS011;33408;52.062;11.722;2023-08-17T18:53:01;11.13;;;5.85;;
47669;SDS011;33408;52.062;11.722;2023-08-17T18:55:28;8.40;;;5.93;;
47669;SDS011;33408;52.062;11.722;2023-08-17T18:57:56;9.30;;;5.85;;